Time;durP1;ratioP1;P1;durP2;ratioP2;P2;SDS_P1;SDS_P2;PMS_P1;PMS_P2;Temp;Humidity;BMP_temperature;BMP_pressure;BME280_temperature;BME280_humidity;BME280_pressure;Samples;Min_cycle;Max_cycle;Signal;HPM_P1;HPM_P2
2023/07/24 00:03:34;;;;;;;22.25;14.05;;;15.40;99.90;;;;;;25539631;23;20507;-53
2023/07/24 00:13:35;;;;;;;25.88;14.40;;;15.20;99.90;;;;;;25590535;23;20008;-54
2023/07/24 00:23:37;;;;;;;24.30;14.23;;;15.20;99.90;;;;;;25590193;23;20008;-57
2023/07/24 00:33:39;;;;;;;23.30;15.20;;;15.00;99.90;;;;;;25589905;23;20348;-45
2023/07/24 00:43:41;;;;;;;27.27;15.60;;;15.00;99.90;;;;;;25589764;23;20005;-56
2023/07/24 00:53:43;;;;;;;30.73;16.77;;;15.00;99.90;;;;;;25589385;23;20005;-44
2023/07/24 01:03:44;;;;;;;28.92;16.67;;;14.90;99.90;;;;;;25589268;23;20012;-47
2023/07/24 01:13:58;;;;;;;27.20;16.92;;;14.90;99.90;;;;;;25592211;23;20008;-56
2023/07/24 01:24:17;;;;;;;24.25;15.93;;;14.80;99.90;;;;;;25638263;23;20009;-53
2023/07/24 01:34:19;;;;;;;25.73;15.95;;;14.80;99.90;;;;;;25616720;23;20025;-55
2023/07/24 01:44:21;;;;;;;28.13;17.50;;;14.80;99.90;;;;;;25596696;23;20063;-54
2023/07/24 01:54:23;;;;;;;26.02;16.05;;;14.90;99.90;;;;;;25595898;23;20076;-49
2023/07/24 02:04:25;;;;;;;25.90;16.50;;;15.00;99.90;;;;;;25595864;23;20001;-55
2023/07/24 02:14:26;;;;;;;27.88;16.95;;;15.10;99.90;;;;;;25595298;23;20055;-52
2023/07/24 02:24:28;;;;;;;26.27;16.20;;;15.10;99.90;;;;;;25594445;23;20001;-53
2023/07/24 02:34:29;;;;;;;23.38;15.18;;;15.20;99.90;;;;;;25594286;23;20059;-49
2023/07/24 02:44:36;;;;;;;22.88;15.25;;;15.60;99.90;;;;;;25594012;23;20282;-56
2023/07/24 02:54:38;;;;;;;26.73;15.65;;;15.90;99.90;;;;;;25634819;23;20001;-53
2023/07/24 03:04:39;;;;;;;29.02;16.52;;;15.90;99.90;;;;;;25593898;23;20020;-54
2023/07/24 03:14:41;;;;;;;26.40;17.50;;;15.60;99.90;;;;;;25566741;23;20004;-53
2023/07/24 03:24:43;;;;;;;20.70;13.40;;;15.20;99.90;;;;;;25592935;23;20001;-56
2023/07/24 03:34:44;;;;;;;24.33;13.93;;;15.00;99.90;;;;;;25565939;23;20448;-50
2023/07/24 03:44:46;;;;;;;20.27;12.27;;;14.80;99.90;;;;;;25591903;23;20012;-52
2023/07/24 03:54:48;;;;;;;21.30;12.32;;;14.60;99.90;;;;;;25591341;23;20056;-54
2023/07/24 04:04:49;;;;;;;20.58;13.18;;;14.60;99.90;;;;;;25589561;23;20009;-54
2023/07/24 04:14:51;;;;;;;20.90;12.90;;;14.50;99.90;;;;;;25590497;23;20008;-57
2023/07/24 04:24:52;;;;;;;17.50;11.50;;;14.70;99.90;;;;;;25590296;23;20425;-55
2023/07/24 04:34:54;;;;;;;19.17;12.60;;;14.80;99.90;;;;;;25589808;23;20009;-52
2023/07/24 04:44:55;;;;;;;20.13;12.57;;;14.80;99.90;;;;;;25589599;23;20341;-55
2023/07/24 04:54:57;;;;;;;21.15;13.40;;;15.10;99.90;;;;;;25589278;23;20087;-52
2023/07/24 05:04:59;;;;;;;21.45;13.50;;;15.50;99.90;;;;;;25589410;23;20005;-53
2023/07/24 05:15:00;;;;;;;19.00;12.75;;;15.80;99.90;;;;;;25589056;23;20051;-56
2023/07/24 05:25:02;;;;;;;21.33;12.02;;;15.80;99.90;;;;;;25588820;23;20012;-52
2023/07/24 05:35:04;;;;;;;20.52;13.20;;;16.10;99.90;;;;;;25588665;23;20009;-51
2023/07/24 05:45:07;;;;;;;19.05;12.85;;;16.80;99.90;;;;;;25588495;23;20515;-54
2023/07/24 05:55:08;;;;;;;16.92;11.00;;;17.50;99.90;;;;;;25588005;23;20005;-57
2023/07/24 06:05:10;;;;;;;18.08;11.35;;;18.30;99.90;;;;;;25595223;23;20005;-45
2023/07/24 06:15:12;;;;;;;17.25;12.35;;;19.30;99.90;;;;;;25595543;23;20055;-54
2023/07/24 06:25:14;;;;;;;18.38;11.52;;;19.90;99.90;;;;;;25595055;23;20001;-49
2023/07/24 06:35:15;;;;;;;17.13;10.68;;;20.00;99.90;;;;;;25594572;23;20013;-55
2023/07/24 06:45:17;;;;;;;14.93;10.10;;;20.60;99.90;;;;;;25594278;23;20005;-54
2023/07/24 06:55:19;;;;;;;13.15;9.18;;;21.80;99.90;;;;;;25594023;23;20005;-58
2023/07/24 07:05:20;;;;;;;14.68;9.40;;;24.60;99.90;;;;;;25593672;23;20009;-58
2023/07/24 07:15:22;;;;;;;10.95;8.20;;;27.10;96.90;;;;;;25592522;23;20075;-57
2023/07/24 07:25:24;;;;;;;12.82;9.23;;;26.60;95.30;;;;;;25592949;23;20005;-55
2023/07/24 07:35:25;;;;;;;16.38;10.65;;;27.30;96.60;;;;;;25592118;23;20009;-59
2023/07/24 07:45:27;;;;;;;13.45;9.43;;;24.80;96.90;;;;;;25591757;23;20052;-59
2023/07/24 07:55:28;;;;;;;19.15;12.15;;;20.70;99.90;;;;;;25591519;23;20009;-57
2023/07/24 08:05:31;;;;;;;15.85;9.75;;;19.00;99.90;;;;;;25591020;23;20009;-50
2023/07/24 08:15:37;;;;;;;14.75;9.82;;;20.60;99.90;;;;;;25589354;23;20019;-59
2023/07/24 08:25:38;;;;;;;13.20;9.38;;;23.00;99.90;;;;;;25590033;23;20034;-46
2023/07/24 08:35:40;;;;;;;22.30;11.68;;;24.60;98.30;;;;;;25589839;23;20009;-59
2023/07/24 08:45:41;;;;;;;14.80;10.25;;;22.50;99.90;;;;;;25589590;23;20009;-59
2023/07/24 08:55:44;;;;;;;13.88;8.93;;;19.80;99.90;;;;;;25589312;23;20444;-58
2023/07/24 09:05:46;;;;;;;15.18;10.50;;;21.30;99.90;;;;;;25589342;23;20009;-60
2023/07/24 09:15:47;;;;;;;15.93;9.18;;;22.50;99.90;;;;;;25588096;23;20009;-48
2023/07/24 09:25:49;;;;;;;16.27;10.88;;;24.00;99.90;;;;;;25588753;23;20537;-60
2023/07/24 09:35:59;;;;;;;14.50;8.95;;;22.40;99.90;;;;;;25592321;23;20010;-46
2023/07/24 09:46:01;;;;;;;12.63;8.82;;;21.20;99.90;;;;;;25596424;23;20083;-60
2023/07/24 09:56:08;;;;;;;16.08;10.32;;;22.00;99.90;;;;;;25595466;23;20459;-60
2023/07/24 10:06:14;;;;;;;16.30;11.82;;;22.40;99.90;;;;;;25635940;23;20009;-60
2023/07/24 10:16:16;;;;;;;18.90;12.38;;;21.40;99.90;;;;;;25635357;23;20079;-60
2023/07/24 10:26:25;;;;;;;19.45;10.88;;;20.30;99.90;;;;;;25595097;23;20005;-60
2023/07/24 10:36:33;;;;;;;15.57;9.98;;;21.10;99.90;;;;;;25582500;23;20075;-51
2023/07/24 10:46:36;;;;;;;;;;;21.40;99.90;;;;;;25636665;23;20063;-60
2023/07/24 10:56:38;;;;;;;13.32;9.77;;;22.50;99.90;;;;;;25593455;23;20308;-60
2023/07/24 11:06:40;;;;;;;16.13;11.13;;;23.60;99.90;;;;;;25593319;23;20468;-60
2023/07/24 11:16:50;;;;;;;14.95;9.25;;;23.80;99.40;;;;;;25593077;23;20005;-59
2023/07/24 11:26:52;;;;;;;15.48;9.93;;;23.20;97.20;;;;;;25592789;23;20020;-60
2023/07/24 11:36:54;;;;;;;14.98;9.75;;;22.30;99.90;;;;;;25591976;23;20009;-60
2023/07/24 11:47:06;;;;;;;17.42;10.35;;;21.40;99.90;;;;;;25592402;23;20012;-60
2023/07/24 11:57:17;;;;;;;15.23;11.07;;;20.00;99.90;;;;;;25632291;23;20061;-60
2023/07/24 12:07:18;;;;;;;18.60;10.75;;;18.90;99.90;;;;;;25564568;23;20012;-60
2023/07/24 12:17:20;;;;;;;17.88;10.80;;;18.10;99.90;;;;;;25591058;23;20506;-60
2023/07/24 12:27:22;;;;;;;13.13;10.18;;;17.50;99.90;;;;;;25590392;23;20005;-60
2023/07/24 12:37:24;;;;;;;18.98;11.45;;;17.40;99.90;;;;;;25589369;23;20383;-59
2023/07/24 12:47:26;;;;;;;24.35;18.38;;;17.40;99.90;;;;;;25590555;23;20009;-60
2023/07/24 12:57:27;;;;;;;16.67;11.27;;;17.30;99.90;;;;;;25589326;23;20028;-60
2023/07/24 13:07:29;;;;;;;16.17;10.00;;;17.20;99.90;;;;;;25588902;23;20052;-51
2023/07/24 13:17:31;;;;;;;12.07;5.35;;;17.10;99.90;;;;;;25588882;23;20005;-45
2023/07/24 13:27:33;;;;;;;10.07;5.90;;;16.20;99.90;;;;;;25588513;23;20064;-57
2023/07/24 13:37:34;;;;;;;13.18;8.15;;;14.80;99.90;;;;;;25587962;23;20009;-60
2023/07/24 13:47:36;;;;;;;16.27;9.50;;;14.30;99.90;;;;;;25588537;23;20040;-55
2023/07/24 13:57:38;;;;;;;13.93;5.20;;;14.70;99.90;;;;;;25586509;23;20512;-57
2023/07/24 14:07:40;;;;;;;11.00;6.13;;;15.50;99.90;;;;;;25585720;23;20012;-45
2023/07/24 14:17:42;;;;;;;9.68;6.07;;;16.20;99.90;;;;;;25588160;23;20001;-48
2023/07/24 14:27:44;;;;;;;11.57;7.13;;;16.30;99.90;;;;;;25594799;23;20001;-60
2023/07/24 14:37:45;;;;;;;12.43;6.38;;;15.70;99.90;;;;;;25594227;23;20337;-47
2023/07/24 14:47:48;;;;;;;10.55;5.68;;;15.70;99.90;;;;;;25594778;23;20032;-50
2023/07/24 14:57:50;;;;;;;7.25;4.88;;;18.10;99.90;;;;;;25593880;23;20017;-60
2023/07/24 15:07:51;;;;;;;6.93;4.10;;;20.10;99.90;;;;;;25593660;23;20013;-60
2023/07/24 15:17:57;;;;;;;12.68;5.95;;;22.20;99.90;;;;;;25593148;23;20051;-60
2023/07/24 15:27:59;;;;;;;10.65;6.05;;;22.80;99.90;;;;;;25633824;23;20690;-61
2023/07/24 15:38:01;;;;;;;10.32;5.30;;;23.50;99.90;;;;;;25592179;23;20040;-48
2023/07/24 15:48:03;;;;;;;13.95;6.35;;;23.50;99.90;;;;;;25591063;23;20016;-60
2023/07/24 15:58:05;;;;;;;11.32;6.38;;;22.20;99.90;;;;;;25591082;23;20009;-60
2023/07/24 16:08:07;;;;;;;13.73;6.75;;;20.70;99.90;;;;;;25591137;23;20027;-59
2023/07/24 16:18:08;;;;;;;11.77;6.38;;;20.00;99.90;;;;;;25564675;23;20045;-59
2023/07/24 16:28:10;;;;;;;13.70;6.45;;;20.40;99.90;;;;;;25590605;23;20066;-59
2023/07/24 16:38:15;;;;;;;12.95;6.75;;;21.10;99.90;;;;;;25563255;23;20013;-58
2023/07/24 16:48:17;;;;;;;10.65;6.20;;;21.50;99.90;;;;;;25589476;23;20008;-59
2023/07/24 16:58:19;;;;;;;11.70;6.35;;;20.50;99.90;;;;;;25590629;23;20028;-58
2023/07/24 17:08:21;;;;;;;9.43;6.35;;;19.20;99.90;;;;;;25589132;23;20009;-58
2023/07/24 17:18:23;;;;;;;11.85;6.20;;;18.30;99.90;;;;;;25589236;23;20016;-59
2023/07/24 17:28:24;;;;;;;11.05;5.93;;;17.80;99.90;;;;;;25587520;23;20079;-58
2023/07/24 17:38:26;;;;;;;11.63;5.90;;;17.30;99.90;;;;;;25588511;23;20017;-59
2023/07/24 17:48:27;;;;;;;13.57;7.30;;;17.10;99.90;;;;;;25588619;23;20300;-59
2023/07/24 17:58:29;;;;;;;15.38;6.40;;;16.90;99.90;;;;;;25593396;23;20001;-59
2023/07/24 18:08:31;;;;;;;14.23;7.50;;;16.80;99.90;;;;;;25595950;23;20522;-58
2023/07/24 18:18:32;;;;;;;11.48;6.53;;;16.70;99.90;;;;;;25595572;23;20012;-58
2023/07/24 18:28:34;;;;;;;16.08;7.57;;;16.60;99.90;;;;;;25595227;23;20000;-59
2023/07/24 18:38:36;;;;;;;15.98;7.55;;;16.60;99.90;;;;;;25594014;23;20393;-58
2023/07/24 18:48:37;;;;;;;11.65;7.05;;;16.60;99.90;;;;;;25593299;23;20009;-59
2023/07/24 18:58:43;;;;;;;14.30;6.47;;;16.50;99.90;;;;;;25592513;23;20005;-58
2023/07/24 19:08:47;;;;;;;12.60;5.88;;;16.50;99.90;;;;;;25590721;23;20009;-58
2023/07/24 19:18:49;;;;;;;14.95;6.93;;;16.60;99.90;;;;;;25592124;23;20005;-58
2023/07/24 19:28:50;;;;;;;14.48;6.72;;;16.80;99.90;;;;;;25591842;23;20036;-50
2023/07/24 19:38:52;;;;;;;11.70;6.80;;;16.80;99.90;;;;;;25589726;23;20009;-58
2023/07/24 19:48:54;;;;;;;11.00;6.32;;;17.40;99.90;;;;;;25591274;23;20017;-45
2023/07/24 19:58:55;;;;;;;15.30;5.95;;;16.80;99.90;;;;;;25590529;23;20005;-58
2023/07/24 20:08:57;;;;;;;13.70;5.78;;;16.50;99.90;;;;;;25590508;23;20005;-57
2023/07/24 20:18:59;;;;;;;9.30;4.88;;;16.60;99.90;;;;;;25589970;23;20374;-57
2023/07/24 20:29:01;;;;;;;8.13;5.20;;;16.40;99.90;;;;;;25589341;23;20440;-56
2023/07/24 20:39:02;;;;;;;10.32;6.05;;;16.20;99.90;;;;;;25588651;23;20013;-56
2023/07/24 20:49:04;;;;;;;11.68;7.35;;;16.10;99.90;;;;;;25589107;23;20005;-55
2023/07/24 20:59:07;;;;;;;21.35;9.15;;;15.70;99.90;;;;;;25587449;23;20005;-53
2023/07/24 21:09:11;;;;;;;25.30;12.55;;;15.30;99.90;;;;;;25584728;23;20009;-45
2023/07/24 21:19:19;;;;;;;24.27;13.35;;;15.70;99.90;;;;;;25588394;23;20461;-54
2023/07/24 21:29:21;;;;;;;11.75;7.43;;;15.80;99.90;;;;;;25590394;23;20013;-49
2023/07/24 21:39:23;;;;;;;9.02;4.70;;;15.60;99.90;;;;;;25575531;23;20021;-53
2023/07/24 21:49:25;;;;;;;7.75;4.03;;;15.40;99.90;;;;;;25596971;23;20001;-46
2023/07/24 21:59:27;;;;;;;7.35;4.25;;;15.10;99.90;;;;;;25596288;23;20063;-48
2023/07/24 22:09:30;;;;;;;14.90;6.78;;;15.20;99.90;;;;;;25595931;23;20001;-57
2023/07/24 22:19:32;;;;;;;13.90;6.75;;;15.00;99.90;;;;;;25569188;23;20012;-55
2023/07/24 22:29:34;;;;;;;13.32;7.28;;;15.30;99.90;;;;;;25595236;23;20016;-48
2023/07/24 22:39:36;;;;;;;19.48;9.18;;;15.50;99.90;;;;;;25593813;23;20490;-49
2023/07/24 22:49:37;;;;;;;12.98;6.78;;;15.70;99.90;;;;;;25594568;23;20126;-56
2023/07/24 22:59:39;;;;;;;18.52;5.85;;;15.80;99.90;;;;;;25594086;23;20005;-57
2023/07/24 23:09:41;;;;;;;11.55;6.85;;;15.90;99.90;;;;;;25593769;23;20055;-49
2023/07/24 23:19:43;;;;;;;14.15;7.00;;;16.70;99.90;;;;;;25593309;23;20001;-58
2023/07/24 23:29:46;;;;;;;12.10;7.10;;;16.60;99.90;;;;;;25592977;23;20005;-50
2023/07/24 23:39:47;;;;;;;18.10;8.25;;;16.30;99.90;;;;;;25592075;23;20024;-58
2023/07/24 23:49:49;;;;;;;14.77;6.63;;;16.00;99.90;;;;;;25592226;23;20001;-58
2023/07/24 23:59:51;;;;;;;8.50;4.72;;;16.00;99.90;;;;;;25591426;23;20017;-57
